createdAt,value
2017-05-25T00:01:13.750Z,84.00
2017-05-25T00:03:41.997Z,84.30
2017-05-25T00:06:10.236Z,84.70
2017-05-25T00:08:38.550Z,85.60
2017-05-25T00:11:06.819Z,85.90
2017-05-25T00:13:35.101Z,86.10
2017-05-25T00:16:03.358Z,85.90
2017-05-25T00:18:31.649Z,85.80
2017-05-25T00:20:59.931Z,86.40
2017-05-25T00:23:28.207Z,86.10
2017-05-25T00:25:56.457Z,86.40
2017-05-25T00:28:24.712Z,87.30
2017-05-25T00:30:53.033Z,87.00
2017-05-25T00:33:21.268Z,86.40
2017-05-25T00:35:49.522Z,86.10
2017-05-25T00:38:17.862Z,86.30
2017-05-25T00:40:46.115Z,86.30
2017-05-25T00:43:14.369Z,86.30
2017-05-25T00:45:42.621Z,86.10
2017-05-25T00:48:10.873Z,86.00
2017-05-25T00:50:39.134Z,86.40
2017-05-25T00:53:07.379Z,86.90
2017-05-25T00:55:35.625Z,87.00
2017-05-25T00:58:03.947Z,86.10
2017-05-25T01:00:32.198Z,86.30
2017-05-25T01:03:00.435Z,85.80
2017-05-25T01:05:28.776Z,85.60
2017-05-25T01:07:57.038Z,85.70
2017-05-25T01:10:25.294Z,84.90
2017-05-25T01:12:53.540Z,83.80
2017-05-25T01:15:21.775Z,85.10
2017-05-25T01:17:50.015Z,85.40
2017-05-25T01:20:18.251Z,84.40
2017-05-25T01:22:46.592Z,84.30
2017-05-25T01:25:14.828Z,84.30
2017-05-25T01:27:43.069Z,84.60
2017-05-25T01:30:11.324Z,85.10
2017-05-25T01:32:39.562Z,85.80
2017-05-25T01:35:07.879Z,86.50
2017-05-25T01:37:36.111Z,87.00
2017-05-25T01:40:04.342Z,87.50
2017-05-25T01:42:32.594Z,87.50
2017-05-25T01:45:00.839Z,88.20
2017-05-25T01:47:29.076Z,88.60
2017-05-25T01:49:57.311Z,88.80
2017-05-25T01:52:25.594Z,88.70
2017-05-25T01:54:53.872Z,88.20
2017-05-25T01:57:22.111Z,88.70
2017-05-25T01:59:50.431Z,88.70
2017-05-25T02:02:18.703Z,88.90
2017-05-25T02:04:46.939Z,89.00
2017-05-25T02:07:15.252Z,88.60
2017-05-25T02:09:43.490Z,88.70
2017-05-25T02:12:11.726Z,88.30
2017-05-25T02:14:39.960Z,88.70
2017-05-25T02:17:08.255Z,89.00
2017-05-25T02:19:36.491Z,89.20
2017-05-25T02:22:04.731Z,89.70
2017-05-25T02:24:32.980Z,89.70
2017-05-25T02:27:01.213Z,90.10
2017-05-25T02:29:29.443Z,90.10
2017-05-25T02:31:57.808Z,90.20
2017-05-25T02:34:26.047Z,89.70
2017-05-25T02:36:54.290Z,89.50
2017-05-25T02:39:22.519Z,89.40
2017-05-25T02:41:50.754Z,89.70
2017-05-25T02:44:18.996Z,89.80
2017-05-25T02:46:47.233Z,89.90
2017-05-25T02:49:15.463Z,89.90
2017-05-25T02:51:43.800Z,90.00
2017-05-25T02:54:12.039Z,90.40
2017-05-25T02:56:40.347Z,90.50
2017-05-25T02:59:08.582Z,90.40
2017-05-25T03:01:36.815Z,90.30
2017-05-25T03:04:05.078Z,90.60
2017-05-25T03:06:33.319Z,90.50
2017-05-25T03:09:01.580Z,90.70
2017-05-25T03:11:29.907Z,90.60
2017-05-25T03:13:58.143Z,90.60
2017-05-25T03:16:26.380Z,90.70
2017-05-25T03:18:54.616Z,90.70
2017-05-25T03:21:22.895Z,90.80
2017-05-25T03:23:51.179Z,90.60
2017-05-25T03:26:19.416Z,90.50
2017-05-25T03:28:47.651Z,90.30
2017-05-25T03:31:15.887Z,90.10
2017-05-25T03:33:44.183Z,90.20
2017-05-25T03:36:12.426Z,90.30
2017-05-25T03:38:40.726Z,90.50
2017-05-25T03:41:08.975Z,90.50
2017-05-25T03:43:37.280Z,90.30
2017-05-25T03:46:05.519Z,90.40
2017-05-25T03:48:33.838Z,90.20
2017-05-25T03:51:02.079Z,90.40
2017-05-25T03:53:30.312Z,90.10
2017-05-25T03:55:58.551Z,89.70
2017-05-25T03:58:26.835Z,89.30
2017-05-25T04:00:55.106Z,89.50
2017-05-25T04:03:23.348Z,89.10
2017-05-25T04:05:51.587Z,88.60
2017-05-25T04:08:19.939Z,88.20
2017-05-25T04:10:48.176Z,87.80
2017-05-25T04:13:16.438Z,87.90
2017-05-25T04:15:44.688Z,88.00
2017-05-25T04:18:12.923Z,88.10
2017-05-25T04:20:41.163Z,88.00
2017-05-25T04:23:09.395Z,88.00
2017-05-25T04:25:37.635Z,88.00
2017-05-25T04:28:05.870Z,87.40
2017-05-25T04:30:34.207Z,87.60
2017-05-25T04:33:02.478Z,87.40
2017-05-25T04:35:30.718Z,86.90
2017-05-25T04:37:58.956Z,86.80
2017-05-25T04:40:27.200Z,86.50
2017-05-25T04:42:54.667Z,86.60
2017-05-25T04:45:22.916Z,86.10
2017-05-25T04:47:51.220Z,84.80
2017-05-25T04:50:19.471Z,83.90
2017-05-25T04:52:47.718Z,82.50
2017-05-25T04:55:15.946Z,82.90
2017-05-25T04:57:44.183Z,82.90
2017-05-25T05:00:12.499Z,84.80
2017-05-25T05:02:40.768Z,87.30
2017-05-25T05:05:09.051Z,88.00
2017-05-25T05:07:37.324Z,88.80
2017-05-25T05:10:05.599Z,87.80
2017-05-25T05:12:33.876Z,86.00
2017-05-25T05:15:02.142Z,85.10
2017-05-25T05:17:30.379Z,85.60
2017-05-25T05:19:58.611Z,87.30
2017-05-25T05:22:26.858Z,88.10
2017-05-25T05:24:55.098Z,88.30
2017-05-25T05:27:23.355Z,86.30
2017-05-25T05:29:51.590Z,82.60
2017-05-25T05:32:19.150Z,82.60
2017-05-25T05:34:47.385Z,74.60
2017-05-25T05:37:14.863Z,74.60
2017-05-25T05:39:43.161Z,74.30
2017-05-25T05:42:11.443Z,79.60
2017-05-25T05:44:39.681Z,84.50
2017-05-25T07:32:38.365Z,63.80
2017-05-25T07:35:06.599Z,60.90
2017-05-25T07:37:34.919Z,61.90
2017-05-25T07:40:03.152Z,63.00
2017-05-25T07:42:31.471Z,62.10
2017-05-25T07:44:59.703Z,61.50
2017-05-25T07:47:28.027Z,61.80
2017-05-25T07:49:56.304Z,60.20
2017-05-25T07:52:24.547Z,59.70
2017-05-25T07:54:52.850Z,58.40
2017-05-25T07:57:21.127Z,59.80
2017-05-25T07:59:49.360Z,58.30
2017-05-25T08:02:17.590Z,58.50
2017-05-25T08:04:45.822Z,57.50
2017-05-25T08:07:14.131Z,54.80
2017-05-25T08:09:42.409Z,55.20
2017-05-25T08:12:10.675Z,54.40
2017-05-25T08:14:38.911Z,54.50
2017-05-25T08:17:07.134Z,58.40
2017-05-25T08:19:35.364Z,53.70
2017-05-25T08:22:03.674Z,51.50
2017-05-25T08:24:31.963Z,49.60
2017-05-25T08:27:00.231Z,48.40
2017-05-25T08:29:28.459Z,50.70
2017-05-25T08:31:56.789Z,52.50
2017-05-25T08:34:25.016Z,52.40
2017-05-25T08:36:53.238Z,51.50
2017-05-25T08:39:21.467Z,52.30
2017-05-25T08:41:49.690Z,52.50
2017-05-25T08:44:17.931Z,54.20
2017-05-25T08:46:46.226Z,52.30
2017-05-25T08:49:14.459Z,53.20
2017-05-25T08:51:42.683Z,53.90
2017-05-25T08:54:10.923Z,52.20
2017-05-25T08:56:39.155Z,54.00
2017-05-25T08:59:07.380Z,50.00
2017-05-25T09:01:35.680Z,49.90
2017-05-25T09:04:03.906Z,50.20
2017-05-25T09:06:32.227Z,50.30
2017-05-25T09:09:00.456Z,50.30
2017-05-25T09:11:28.688Z,50.00
2017-05-25T09:13:56.911Z,50.60
2017-05-25T09:16:25.143Z,48.60
2017-05-25T09:18:53.369Z,51.30
2017-05-25T09:21:21.675Z,49.40
2017-05-25T09:23:49.942Z,50.20
2017-05-25T09:26:18.223Z,50.50
2017-05-25T09:28:46.449Z,50.60
2017-05-25T09:31:14.675Z,51.30
2017-05-25T09:33:42.915Z,49.30
2017-05-25T09:36:11.147Z,50.20
2017-05-25T09:38:39.373Z,50.00
2017-05-25T09:41:07.675Z,49.80
2017-05-25T09:43:35.898Z,49.90
2017-05-25T09:46:04.132Z,49.60
2017-05-25T09:48:31.587Z,49.60
2017-05-25T09:50:59.855Z,45.20
2017-05-25T09:53:27.320Z,45.20
2017-05-25T09:55:55.547Z,44.20
2017-05-25T09:58:23.775Z,46.60
2017-05-25T10:00:51.995Z,45.30
2017-05-25T10:03:20.270Z,47.10
2017-05-25T10:05:48.500Z,47.10
2017-05-25T10:08:16.722Z,47.60
2017-05-25T10:10:45.035Z,43.90
2017-05-25T10:13:13.311Z,45.50
2017-05-25T10:15:41.551Z,44.70
2017-05-25T10:18:09.779Z,45.50
2017-05-25T10:20:38.027Z,45.90
2017-05-25T10:23:06.258Z,44.40
2017-05-25T10:25:34.485Z,45.10
2017-05-25T10:28:02.768Z,45.90
2017-05-25T10:30:30.987Z,45.80
2017-05-25T10:32:59.218Z,45.30
2017-05-25T10:35:27.449Z,44.80
2017-05-25T10:37:55.761Z,43.80
2017-05-25T10:40:24.035Z,44.90
2017-05-25T10:42:52.264Z,44.40
2017-05-25T10:45:20.492Z,44.70
2017-05-25T10:47:48.723Z,45.10
2017-05-25T10:50:16.955Z,43.30
2017-05-25T10:52:45.207Z,42.40
2017-05-25T10:55:13.483Z,42.20
2017-05-25T10:57:41.712Z,41.40
2017-05-25T11:00:09.943Z,41.80
2017-05-25T11:02:38.209Z,43.60
2017-05-25T11:05:06.476Z,43.60
2017-05-25T11:07:34.699Z,43.20
2017-05-25T11:10:02.930Z,43.30
2017-05-25T11:12:31.157Z,43.90
2017-05-25T11:14:59.392Z,45.00
2017-05-25T11:17:27.619Z,42.50
2017-05-25T11:19:55.843Z,41.10
2017-05-25T11:22:24.104Z,42.20
2017-05-25T11:24:52.326Z,43.30
2017-05-25T11:27:20.560Z,43.10
2017-05-25T11:29:48.783Z,42.90
2017-05-25T11:32:17.015Z,42.80
2017-05-25T11:34:45.239Z,44.00
2017-05-25T11:37:13.463Z,43.60
2017-05-25T11:39:41.703Z,44.30
2017-05-25T11:42:09.934Z,42.70
2017-05-25T11:44:38.271Z,43.40
2017-05-25T11:47:06.505Z,43.60
2017-05-25T11:49:34.732Z,44.40
2017-05-25T11:52:03.000Z,43.20
2017-05-25T11:54:31.232Z,44.40
2017-05-25T11:56:59.458Z,45.60
2017-05-25T11:59:27.683Z,44.30
2017-05-25T12:01:55.905Z,43.70
2017-05-25T12:04:24.171Z,44.00
2017-05-25T12:06:52.447Z,43.70
2017-05-25T12:09:20.679Z,43.20
2017-05-25T12:11:48.911Z,42.70
2017-05-25T12:14:17.171Z,42.20
2017-05-25T12:16:45.397Z,42.70
2017-05-25T12:19:12.853Z,42.70
2017-05-25T12:21:41.192Z,44.60
2017-05-25T12:24:09.455Z,44.00
2017-05-25T12:26:37.683Z,43.20
2017-05-25T12:29:05.915Z,49.20
2017-05-25T12:31:34.179Z,42.90
2017-05-25T12:34:02.404Z,42.30
2017-05-25T12:36:30.728Z,43.30
2017-05-25T12:38:59.010Z,43.10
2017-05-25T12:41:27.283Z,42.40
2017-05-25T12:43:55.557Z,41.60
2017-05-25T12:46:23.785Z,43.30
2017-05-25T12:48:52.015Z,42.60
2017-05-25T12:51:20.246Z,42.60
2017-05-25T12:53:48.467Z,41.80
2017-05-25T12:56:16.722Z,43.80
2017-05-25T12:58:45.005Z,42.40
2017-05-25T13:01:13.236Z,42.70
2017-05-25T13:03:41.463Z,42.50
2017-05-25T13:06:09.727Z,43.20
2017-05-25T13:08:38.002Z,42.90
2017-05-25T13:11:06.236Z,42.00
2017-05-25T13:13:33.698Z,42.00
2017-05-25T13:16:02.015Z,42.30
2017-05-25T13:18:30.239Z,42.60
2017-05-25T13:20:58.567Z,43.10
2017-05-25T13:23:26.831Z,42.50
2017-05-25T13:25:55.064Z,43.20
2017-05-25T13:28:23.288Z,42.00
2017-05-25T13:30:51.516Z,42.90
2017-05-25T13:33:19.757Z,42.30
2017-05-25T13:35:48.013Z,43.10
2017-05-25T13:38:15.475Z,43.10
2017-05-25T13:40:43.702Z,43.50
2017-05-25T13:43:11.942Z,42.80
2017-05-25T13:45:40.191Z,43.10
2017-05-25T13:48:08.467Z,42.10
2017-05-25T13:50:36.736Z,42.80
2017-05-25T13:53:04.959Z,43.70
2017-05-25T13:55:33.198Z,42.80
2017-05-25T13:58:01.467Z,42.70
2017-05-25T14:00:29.707Z,41.50
2017-05-25T14:02:57.932Z,42.70
2017-05-25T14:05:26.171Z,41.20
2017-05-25T14:07:54.395Z,41.20
2017-05-25T14:10:22.627Z,42.10
2017-05-25T14:12:50.850Z,43.10
2017-05-25T14:15:19.076Z,42.20
2017-05-25T14:17:47.362Z,42.80
2017-05-25T14:20:15.596Z,43.70
2017-05-25T14:22:43.926Z,43.50
2017-05-25T14:25:12.151Z,43.50
2017-05-25T14:27:40.394Z,44.10
2017-05-25T14:30:08.620Z,43.60
2017-05-25T14:32:36.880Z,44.10
2017-05-25T14:35:05.103Z,45.00
2017-05-25T14:37:33.362Z,45.30
2017-05-25T14:40:01.598Z,44.70
2017-05-25T14:42:29.823Z,44.20
2017-05-25T14:44:58.062Z,45.30
2017-05-25T14:47:26.287Z,45.10
2017-05-25T14:49:54.521Z,43.80
2017-05-25T14:52:22.811Z,43.90
2017-05-25T14:54:51.051Z,43.80
2017-05-25T14:57:19.278Z,43.80
2017-05-25T14:59:47.536Z,44.50
2017-05-25T15:02:15.765Z,45.30
2017-05-25T15:04:44.096Z,45.40
2017-05-25T15:07:12.323Z,44.40
2017-05-25T15:09:40.561Z,45.10
2017-05-25T15:12:08.800Z,46.50
2017-05-25T15:14:37.096Z,45.70
2017-05-25T15:17:05.327Z,46.60
2017-05-25T15:19:33.638Z,45.80
2017-05-25T15:22:01.875Z,45.90
2017-05-25T15:24:30.190Z,45.80
2017-05-25T15:26:58.461Z,45.90
2017-05-25T15:29:26.738Z,45.00
2017-05-25T15:31:55.010Z,44.70
2017-05-25T15:34:23.230Z,43.50
2017-05-25T15:36:51.564Z,43.70
2017-05-25T15:39:19.786Z,45.30
2017-05-25T15:41:48.021Z,44.80
2017-05-25T15:44:16.291Z,45.70
2017-05-25T15:46:44.567Z,45.00
2017-05-25T15:49:12.790Z,44.40
2017-05-25T15:51:41.015Z,44.10
2017-05-25T15:54:09.244Z,44.30
2017-05-25T15:56:37.471Z,43.60
2017-05-25T15:59:05.701Z,44.90
2017-05-25T16:01:33.926Z,44.50
2017-05-25T16:04:02.187Z,44.60
2017-05-25T16:06:30.428Z,44.80
2017-05-25T16:08:59.554Z,44.30
2017-05-25T16:11:27.827Z,44.60
2017-05-25T16:13:56.051Z,44.40
2017-05-25T16:16:24.282Z,43.80
2017-05-25T16:18:52.511Z,43.60
2017-05-25T16:21:20.730Z,45.50
2017-05-25T16:23:48.951Z,43.40
2017-05-25T16:26:17.279Z,43.80
2017-05-25T16:28:45.499Z,44.20
2017-05-25T16:31:12.962Z,44.80
2017-05-25T16:33:41.194Z,45.60
2017-05-25T16:36:09.463Z,45.00
2017-05-25T16:38:37.738Z,45.50
2017-05-25T16:41:05.970Z,45.40
2017-05-25T16:43:34.195Z,46.20
2017-05-25T16:46:02.424Z,46.00
2017-05-25T16:48:30.731Z,45.50
2017-05-25T16:50:58.960Z,44.90
2017-05-25T16:53:27.187Z,44.00
2017-05-25T16:55:55.459Z,44.80
2017-05-25T16:58:23.688Z,45.00
2017-05-25T17:00:51.911Z,44.80
2017-05-25T17:03:20.181Z,44.70
2017-05-25T17:05:48.459Z,44.50
2017-05-25T17:08:16.750Z,43.60
2017-05-25T17:10:44.206Z,43.60
2017-05-25T17:13:12.432Z,45.10
2017-05-25T17:15:40.668Z,45.90
2017-05-25T17:18:09.308Z,46.60
2017-05-25T17:20:37.539Z,46.60
2017-05-25T17:23:05.884Z,48.10
2017-05-25T17:25:34.146Z,48.30
2017-05-25T17:28:02.383Z,48.90
2017-05-25T17:30:30.607Z,48.00
2017-05-25T17:32:58.879Z,48.40
2017-05-25T17:35:27.103Z,47.60
2017-05-25T17:37:55.330Z,47.90
2017-05-25T17:40:23.559Z,48.70
2017-05-25T17:42:52.644Z,48.70
2017-05-25T17:45:20.875Z,48.20
2017-05-25T17:47:49.099Z,48.90
2017-05-25T17:50:17.421Z,49.40
2017-05-25T17:52:45.647Z,49.20
2017-05-25T17:55:13.873Z,49.20
2017-05-25T17:57:42.144Z,50.00
2017-05-25T18:00:10.420Z,49.50
2017-05-25T18:02:38.692Z,48.70
2017-05-25T18:05:06.974Z,49.00
2017-05-25T18:07:35.244Z,49.30
2017-05-25T18:10:03.474Z,49.60
2017-05-25T18:12:31.699Z,50.60
2017-05-25T18:14:59.931Z,50.70
2017-05-25T18:17:28.156Z,51.10
2017-05-25T18:19:56.416Z,50.90
2017-05-25T18:22:24.648Z,50.50
2017-05-25T18:24:52.876Z,51.00
2017-05-25T18:27:21.111Z,51.20
2017-05-25T18:29:49.339Z,51.30
2017-05-25T18:32:17.563Z,51.50
2017-05-25T18:34:45.786Z,52.00
2017-05-25T18:37:14.019Z,51.90
2017-05-25T18:39:42.243Z,52.10
2017-05-25T18:42:10.583Z,53.00
2017-05-25T18:44:38.865Z,52.40
2017-05-25T18:47:07.092Z,52.80
2017-05-25T18:49:35.319Z,53.00
2017-05-25T18:52:03.552Z,53.90
2017-05-25T18:54:31.863Z,53.60
2017-05-25T18:57:00.112Z,53.60
2017-05-25T18:59:28.415Z,54.20
2017-05-25T19:01:56.692Z,54.50
2017-05-25T19:04:24.967Z,54.80
2017-05-25T19:06:53.243Z,55.10
2017-05-25T19:09:21.471Z,55.50
2017-05-25T19:11:49.791Z,55.80
2017-05-25T19:14:18.075Z,55.80
2017-05-25T19:16:46.352Z,56.40
2017-05-25T19:19:14.586Z,56.90
2017-05-25T19:21:42.808Z,56.70
2017-05-25T19:24:11.038Z,58.00
2017-05-25T19:26:39.267Z,57.70
2017-05-25T19:29:07.524Z,58.20
2017-05-25T19:31:34.995Z,58.20
2017-05-25T19:34:03.251Z,58.90
2017-05-25T19:36:31.482Z,59.40
2017-05-25T19:38:59.801Z,59.50
2017-05-25T19:41:28.022Z,59.80
2017-05-25T19:43:56.269Z,60.50
2017-05-25T19:46:24.495Z,61.40
2017-05-25T19:48:52.732Z,61.90
2017-05-25T19:51:20.959Z,64.20
2017-05-25T19:53:49.246Z,65.10
2017-05-25T19:56:17.470Z,64.30
2017-05-25T19:58:45.710Z,65.10
2017-05-25T20:01:13.982Z,65.80
2017-05-25T20:03:42.210Z,65.70
2017-05-25T20:06:10.524Z,66.60
2017-05-25T20:08:38.755Z,64.80
2017-05-25T20:11:07.074Z,64.30
2017-05-25T20:13:35.311Z,65.00
2017-05-25T20:16:03.539Z,64.80
2017-05-25T20:18:31.771Z,68.00
2017-05-25T20:21:00.003Z,66.50
2017-05-25T20:23:28.250Z,66.30
2017-05-25T20:25:56.524Z,65.50
2017-05-25T20:28:24.796Z,66.60
2017-05-25T20:30:53.026Z,68.10
2017-05-25T20:33:21.259Z,68.90
2017-05-25T20:35:49.523Z,69.60
2017-05-25T20:38:17.749Z,69.00
2017-05-25T20:40:46.071Z,69.50
2017-05-25T20:43:14.300Z,70.30
2017-05-25T20:45:42.635Z,71.60
2017-05-25T20:48:10.867Z,74.10
2017-05-25T20:50:39.177Z,74.00
2017-05-25T20:53:07.399Z,74.50
2017-05-25T20:55:35.718Z,75.60
2017-05-25T20:58:03.956Z,75.00
2017-05-25T21:00:32.274Z,75.60
2017-05-25T21:03:00.506Z,75.80
2017-05-25T21:05:28.734Z,75.40
2017-05-25T21:07:56.970Z,76.70
2017-05-25T21:10:25.199Z,76.70
2017-05-25T21:12:53.436Z,76.40
2017-05-25T21:15:21.668Z,76.20
2017-05-25T21:17:49.902Z,75.60
2017-05-25T21:20:18.138Z,75.70
2017-05-25T21:22:46.364Z,76.50
2017-05-25T21:25:14.591Z,76.40
2017-05-25T21:27:42.827Z,76.90
2017-05-25T21:30:11.055Z,76.20
2017-05-25T21:32:39.295Z,76.60
2017-05-25T21:35:07.519Z,77.80
2017-05-25T21:37:35.001Z,77.80
2017-05-25T21:40:03.251Z,78.50
2017-05-25T21:42:31.531Z,79.20
2017-05-25T21:44:59.767Z,79.60
2017-05-25T21:47:28.079Z,79.10
2017-05-25T21:49:56.319Z,78.50
2017-05-25T21:52:24.553Z,77.90
2017-05-25T21:54:52.795Z,77.80
2017-05-25T21:57:21.087Z,78.30
2017-05-25T22:02:40.929Z,79.30
2017-05-25T22:05:09.170Z,79.70
2017-05-25T22:07:37.403Z,80.00
2017-05-25T22:10:05.653Z,80.20
2017-05-25T22:12:33.883Z,80.90
2017-05-25T22:15:02.106Z,82.90
2017-05-25T22:17:30.423Z,81.50
2017-05-25T22:19:58.704Z,82.10
2017-05-25T22:22:26.943Z,83.00
2017-05-25T22:24:55.186Z,82.10
2017-05-25T22:27:23.537Z,82.60
2017-05-25T22:29:51.763Z,83.40
2017-05-25T22:32:20.074Z,82.70
2017-05-25T22:34:48.347Z,82.40
2017-05-25T22:37:16.791Z,82.50
2017-05-25T22:39:45.108Z,83.10
2017-05-25T22:42:13.384Z,83.30
2017-05-25T22:44:41.617Z,83.40
2017-05-25T22:47:09.935Z,83.20
2017-05-25T22:49:38.170Z,84.90
2017-05-25T22:52:06.487Z,83.40
2017-05-25T22:54:33.954Z,83.40
2017-05-25T22:57:02.224Z,85.20
2017-05-25T22:59:30.455Z,84.50
2017-05-25T23:01:58.687Z,85.00
2017-05-25T23:04:27.815Z,84.90
2017-05-25T23:06:56.043Z,85.30
2017-05-25T23:09:24.274Z,85.90
2017-05-25T23:11:52.590Z,86.10
2017-05-25T23:14:20.858Z,86.70
2017-05-25T23:16:49.089Z,86.40
2017-05-25T23:19:17.329Z,86.60
2017-05-25T23:21:45.559Z,86.50
2017-05-25T23:24:13.036Z,87.00
2017-05-25T23:26:41.327Z,86.90
2017-05-25T23:29:09.565Z,87.50
2017-05-25T23:31:37.808Z,87.10
2017-05-25T23:34:06.155Z,87.70
2017-05-25T23:36:34.391Z,87.50
2017-05-25T23:39:02.631Z,88.30
2017-05-25T23:41:30.863Z,87.90
2017-05-25T23:43:59.095Z,88.10
2017-05-25T23:46:27.343Z,88.70
2017-05-25T23:48:55.597Z,88.50
2017-05-25T23:51:23.795Z,88.40
2017-05-25T23:53:52.077Z,88.00
2017-05-25T23:56:20.419Z,87.30
2017-05-25T23:58:48.694Z,86.90
